Time;durP1;ratioP1;P1;durP2;ratioP2;P2;SDS_P1;SDS_P2;PMS_P1;PMS_P2;Temp;Humidity;BMP_temperature;BMP_pressure;BME280_temperature;BME280_humidity;BME280_pressure;Samples;Min_cycle;Max_cycle;Signal;HPM_P1;HPM_P2
2023/06/15 00:00:45;;;;;;;10.75;6.35;;;;;;;14.57;100.00;92403.59;4760339;30;20051;-79
2023/06/15 00:03:11;;;;;;;9.80;6.45;;;;;;;14.52;100.00;92395.81;4763958;30;20051;-80
2023/06/15 00:05:37;;;;;;;9.13;6.00;;;;;;;14.51;100.00;92399.53;4763703;30;20035;-80
2023/06/15 00:08:02;;;;;;;9.55;6.38;;;;;;;14.48;100.00;92402.81;4780103;30;20067;-80
2023/06/15 00:10:28;;;;;;;11.35;6.40;;;;;;;14.43;100.00;92397.66;4763258;30;20456;-79
2023/06/15 00:12:54;;;;;;;9.40;7.05;;;;;;;14.40;100.00;92400.94;4750675;30;20568;-80
2023/06/15 00:15:20;;;;;;;14.45;8.25;;;;;;;14.38;100.00;92403.88;4777996;30;20475;-79
2023/06/15 00:17:46;;;;;;;13.13;9.05;;;;;;;14.36;100.00;92411.31;4764942;30;20073;-79
2023/06/15 00:20:13;;;;;;;12.15;8.88;;;;;;;14.34;100.00;92409.00;4756929;30;20085;-79
2023/06/15 00:22:45;;;;;;;11.55;7.70;;;;;;;14.35;100.00;92407.91;4773062;30;20099;-80
2023/06/15 00:25:11;;;;;;;14.23;8.02;;;;;;;14.34;100.00;92410.84;4736165;30;20048;-80
2023/06/15 00:27:37;;;;;;;15.00;7.63;;;;;;;14.28;100.00;92410.25;4762756;30;20031;-80
2023/06/15 00:30:05;;;;;;;14.57;7.70;;;;;;;14.28;100.00;92420.00;4764426;30;20495;-80
2023/06/15 00:32:31;;;;;;;12.60;7.35;;;;;;;14.26;100.00;92419.53;4761073;30;20055;-80
2023/06/15 00:34:57;;;;;;;11.35;7.05;;;;;;;14.24;100.00;92425.09;4776746;30;20104;-80
2023/06/15 00:37:22;;;;;;;9.80;7.15;;;;;;;14.21;100.00;92423.09;4759492;30;20054;-80
2023/06/15 00:39:48;;;;;;;10.75;6.85;;;;;;;14.21;100.00;92424.94;4779604;30;20051;-79
2023/06/15 00:42:16;;;;;;;9.43;6.40;;;;;;;14.19;100.00;92420.00;4760347;30;20377;-80
2023/06/15 00:44:41;;;;;;;10.38;6.72;;;;;;;14.20;100.00;92428.66;4762954;30;20078;-79
2023/06/15 00:47:09;;;;;;;8.02;6.10;;;;;;;14.18;100.00;92425.56;4763958;30;20058;-79
2023/06/15 00:49:36;;;;;;;8.25;5.95;;;;;;;14.13;100.00;92429.88;4758373;30;20052;-79
2023/06/15 00:52:03;;;;;;;9.05;5.68;;;;;;;14.10;100.00;92414.72;4757247;30;20152;-79
2023/06/15 00:54:30;;;;;;;9.55;6.30;;;;;;;14.07;100.00;92425.09;4763145;30;20052;-80
2023/06/15 00:56:56;;;;;;;10.00;6.40;;;;;;;14.00;100.00;92430.81;4740712;30;20099;-79
2023/06/15 00:59:22;;;;;;;13.50;6.63;;;;;;;13.98;100.00;92430.34;4748772;30;20066;-80
2023/06/15 01:01:48;;;;;;;10.45;6.32;;;;;;;13.94;100.00;92432.81;4748521;30;20111;-79
2023/06/15 01:04:16;;;;;;;11.48;7.20;;;;;;;13.92;100.00;92428.97;4763295;30;20442;-80
2023/06/15 01:06:51;;;;;;;11.88;7.20;;;;;;;13.94;100.00;92442.59;4763504;30;20019;-80
2023/06/15 01:09:21;;;;;;;13.20;8.07;;;;;;;13.92;100.00;92428.97;4766243;30;20044;-80
2023/06/15 01:11:55;;;;;;;12.80;8.35;;;;;;;13.91;100.00;92433.41;4757880;30;20054;-81
2023/06/15 01:14:24;;;;;;;14.45;7.70;;;;;;;13.93;100.00;92436.53;4781101;30;20056;-79
2023/06/15 01:16:57;;;;;;;12.20;8.15;;;;;;;13.94;100.00;92443.34;4781397;30;20044;-80
2023/06/15 01:19:53;;;;;;;12.30;7.78;;;;;;;13.94;100.00;92440.72;4766387;30;20062;-80
2023/06/15 01:22:57;;;;;;;13.38;8.65;;;;;;;13.89;100.00;92434.81;4782408;30;20074;-79
2023/06/15 01:25:41;;;;;;;12.23;7.68;;;;;;;13.87;100.00;92434.34;4781457;30;20031;-79
2023/06/15 01:28:09;;;;;;;13.32;8.68;;;;;;;13.84;100.00;92427.84;4782133;30;20072;-79
2023/06/15 01:30:47;;;;;;;13.88;8.93;;;;;;;13.82;100.00;92427.38;4749283;30;20042;-79
2023/06/15 01:33:15;;;;;;;14.35;7.68;;;;;;;13.79;100.00;92430.63;4754928;30;20089;-79
2023/06/15 01:35:41;;;;;;;13.73;8.00;;;;;;;13.77;100.00;92427.53;4753167;30;20048;-79
2023/06/15 01:38:10;;;;;;;16.77;7.82;;;;;;;13.77;100.00;92424.88;4750577;30;20099;-79
2023/06/15 01:40:43;;;;;;;12.18;8.05;;;;;;;13.73;100.00;92426.59;4783388;30;20040;-79
2023/06/15 01:43:12;;;;;;;12.98;6.97;;;;;;;13.71;100.00;92420.84;4763982;30;20040;-79
2023/06/15 01:45:40;;;;;;;11.05;7.20;;;;;;;13.70;100.00;92424.56;4766879;30;20043;-79
2023/06/15 01:48:07;;;;;;;11.60;7.30;;;;;;;13.69;100.00;92425.63;4767483;30;20024;-80
2023/06/15 01:50:34;;;;;;;9.50;6.10;;;;;;;13.69;100.00;92425.63;4767608;30;20082;-80
2023/06/15 01:53:00;;;;;;;8.55;4.65;;;;;;;13.67;100.00;92423.34;4759495;30;20037;-80
2023/06/15 01:55:26;;;;;;;9.15;4.80;;;;;;;13.66;100.00;92428.88;4750749;30;20042;-80
2023/06/15 01:57:53;;;;;;;7.55;4.70;;;;;;;13.64;100.00;92433.69;4782078;30;20081;-79
2023/06/15 02:00:22;;;;;;;8.25;4.78;;;;;;;13.64;100.00;92428.41;4750786;30;20092;-79
2023/06/15 02:02:48;;;;;;;9.30;4.88;;;;;;;13.62;100.00;92427.94;4764998;30;20044;-79
2023/06/15 02:05:14;;;;;;;6.15;4.25;;;;;;;13.60;100.00;92428.28;4750376;30;20494;-79
2023/06/15 02:07:40;;;;;;;8.18;4.18;;;;;;;13.59;100.00;92428.56;4759387;30;20051;-79
2023/06/15 02:10:07;;;;;;;7.93;4.93;;;;;;;13.58;100.00;92430.44;4751128;30;20043;-79
2023/06/15 02:12:33;;;;;;;12.55;5.03;;;;;;;13.62;100.00;92426.13;4765780;30;20060;-79
2023/06/15 02:15:01;;;;;;;8.80;5.20;;;;;;;13.63;100.00;92427.66;4750173;30;20059;-79
2023/06/15 02:17:30;;;;;;;9.85;5.55;;;;;;;13.65;100.00;92425.50;4780891;30;20040;-79
2023/06/15 02:19:56;;;;;;;7.18;4.75;;;;;;;13.67;100.00;92427.81;4735726;30;20068;-78
2023/06/15 02:22:22;;;;;;;9.20;4.78;;;;;;;13.68;100.00;92418.84;4781580;30;20043;-78
2023/06/15 02:24:48;;;;;;;7.50;4.60;;;;;;;13.74;100.00;92428.16;4764254;30;20483;-77
2023/06/15 02:27:14;;;;;;;9.95;4.93;;;;;;;13.75;100.00;92429.69;4764919;30;20071;-77
2023/06/15 02:29:40;;;;;;;7.72;5.13;;;;;;;13.77;100.00;92432.78;4766256;30;20032;-79
2023/06/15 02:32:06;;;;;;;10.07;4.70;;;;;;;13.77;100.00;92432.00;4777909;30;20071;-78
2023/06/15 02:34:32;;;;;;;7.22;4.65;;;;;;;13.76;100.00;92426.00;4765374;30;20063;-79
2023/06/15 02:36:58;;;;;;;7.80;4.82;;;;;;;13.75;100.00;92425.19;4751098;30;20121;-80
2023/06/15 02:39:24;;;;;;;10.20;4.60;;;;;;;13.79;100.00;92433.25;4751298;30;20048;-79
2023/06/15 02:41:50;;;;;;;8.30;4.22;;;;;;;13.79;100.00;92430.63;4765695;30;20039;-80
2023/06/15 02:44:16;;;;;;;7.68;5.05;;;;;;;13.82;100.00;92430.00;4764231;30;20051;-80
2023/06/15 02:46:42;;;;;;;10.48;5.13;;;;;;;13.85;100.00;92439.94;4764870;30;20065;-79
2023/06/15 02:49:09;;;;;;;6.38;4.47;;;;;;;13.85;100.00;92434.66;4764320;30;20130;-80
2023/06/15 02:51:37;;;;;;;8.07;4.90;;;;;;;13.85;100.00;92433.91;4764204;30;20054;-78
2023/06/15 02:54:05;;;;;;;8.63;4.63;;;;;;;13.84;100.00;92432.34;4745469;30;20044;-80
2023/06/15 02:56:34;;;;;;;11.65;5.40;;;;;;;13.83;100.00;92436.81;4763687;30;20047;-79
2023/06/15 02:59:00;;;;;;;8.75;4.63;;;;;;;13.82;100.00;92435.25;4764727;30;20066;-79
2023/06/15 03:01:49;;;;;;;9.05;4.97;;;;;;;13.80;100.00;92440.06;4766494;30;20058;-79
2023/06/15 03:04:17;;;;;;;9.38;4.78;;;;;;;13.78;100.00;92438.81;4735725;30;20063;-79
2023/06/15 03:06:46;;;;;;;8.85;4.72;;;;;;;13.74;100.00;92439.44;4737395;30;20046;-79
2023/06/15 03:09:22;;;;;;;7.88;4.40;;;;;;;13.72;100.00;92440.81;4781671;30;20558;-79
2023/06/15 03:11:50;;;;;;;8.52;4.70;;;;;;;13.69;100.00;92439.59;4749497;30;20071;-79
2023/06/15 03:14:20;;;;;;;9.18;4.70;;;;;;;13.68;100.00;92440.66;4763444;30;20043;-79
2023/06/15 03:16:47;;;;;;;7.28;4.38;;;;;;;13.66;100.00;92436.78;4748810;30;20036;-79
2023/06/15 03:19:16;;;;;;;8.75;5.25;;;;;;;13.64;100.00;92438.94;4762957;30;20057;-78
2023/06/15 03:21:46;;;;;;;8.27;4.97;;;;;;;13.63;100.00;92440.81;4748999;30;20047;-79
2023/06/15 03:24:13;;;;;;;9.77;5.57;;;;;;;13.62;100.00;92443.72;4763891;30;20055;-79
2023/06/15 03:26:49;;;;;;;8.57;5.15;;;;;;;13.60;100.00;92445.88;4744483;30;20112;-79
2023/06/15 03:29:15;;;;;;;8.52;5.03;;;;;;;13.57;100.00;92439.38;4754369;30;20070;-79
2023/06/15 03:31:43;;;;;;;7.70;4.63;;;;;;;13.57;100.00;92443.88;4763067;30;20043;-78
2023/06/15 03:34:10;;;;;;;7.75;4.53;;;;;;;13.56;100.00;92444.97;4762486;30;20070;-79
2023/06/15 03:36:36;;;;;;;7.50;4.82;;;;;;;13.53;100.00;92441.06;4763892;30;20035;-79
2023/06/15 03:39:03;;;;;;;7.25;4.32;;;;;;;13.56;100.00;92444.97;4749936;30;20060;-80
2023/06/15 03:41:30;;;;;;;9.25;4.25;;;;;;;13.58;100.00;92446.22;4750497;30;20046;-79
2023/06/15 03:43:56;;;;;;;7.40;4.85;;;;;;;13.62;100.00;92455.03;4749390;30;20044;-79
2023/06/15 03:46:22;;;;;;;7.60;4.50;;;;;;;13.65;100.00;92451.03;4763539;30;20048;-79
2023/06/15 03:48:49;;;;;;;7.68;4.70;;;;;;;13.66;100.00;92452.56;4748704;30;20427;-79
2023/06/15 03:51:14;;;;;;;8.70;5.32;;;;;;;13.69;100.00;92457.19;4779687;30;20332;-79
2023/06/15 03:53:42;;;;;;;6.75;4.70;;;;;;;13.71;100.00;92452.41;4753879;30;20123;-79
2023/06/15 03:56:08;;;;;;;8.82;5.00;;;;;;;13.74;100.00;92451.81;4759231;30;20480;-79
2023/06/15 03:58:33;;;;;;;7.22;4.68;;;;;;;13.77;100.00;92451.19;4762069;30;20043;-79
2023/06/15 04:01:00;;;;;;;6.95;4.53;;;;;;;13.80;100.00;92453.22;4758150;30;20040;-79
2023/06/15 04:03:26;;;;;;;7.15;5.00;;;;;;;13.81;100.00;92454.78;4762382;30;20039;-78
2023/06/15 04:05:52;;;;;;;8.13;4.68;;;;;;;13.83;100.00;92468.41;4762705;30;20035;-78
2023/06/15 04:08:18;;;;;;;8.95;4.28;;;;;;;13.85;100.00;92466.25;4764260;30;20069;-78
2023/06/15 04:10:45;;;;;;;8.25;5.00;;;;;;;13.88;100.00;92468.25;4763064;30;20070;-80
2023/06/15 04:13:10;;;;;;;7.95;4.70;;;;;;;13.92;100.00;92471.81;4764429;30;20032;-80
2023/06/15 04:15:37;;;;;;;6.20;4.50;;;;;;;13.95;100.00;92471.19;4751311;30;20452;-79
2023/06/15 04:18:03;;;;;;;9.00;4.63;;;;;;;13.99;100.00;92468.75;4750370;30;20138;-79
2023/06/15 04:20:30;;;;;;;6.35;4.32;;;;;;;14.02;100.00;92467.34;4743892;30;20075;-80
2023/06/15 04:22:57;;;;;;;8.50;4.80;;;;;;;14.05;100.00;92475.41;4766343;30;20032;-80
2023/06/15 04:25:23;;;;;;;6.82;4.72;;;;;;;14.12;100.00;92475.72;4724501;30;20126;-80
2023/06/15 04:27:49;;;;;;;7.78;4.55;;;;;;;14.20;100.00;92479.44;4760912;30;20107;-79
2023/06/15 04:30:24;;;;;;;9.15;5.50;;;;;;;14.23;100.00;92478.84;4750977;30;20107;-78
2023/06/15 04:32:59;;;;;;;8.07;5.07;;;;;;;14.21;100.00;92478.38;4756363;30;20117;-80
2023/06/15 04:35:30;;;;;;;9.00;5.20;;;;;;;14.22;100.00;92482.56;4772506;30;20048;-79
2023/06/15 04:37:58;;;;;;;9.85;6.05;;;;;;;14.19;100.00;92479.78;4764307;30;20114;-80
2023/06/15 04:40:24;;;;;;;9.60;6.45;;;;;;;14.10;100.00;92479.75;4747053;30;20055;-81
2023/06/15 04:42:53;;;;;;;8.45;6.22;;;;;;;14.13;100.00;92484.41;4762248;30;20063;-79
2023/06/15 04:45:19;;;;;;;9.10;6.03;;;;;;;14.18;100.00;92478.97;4760797;30;20035;-78
2023/06/15 04:47:46;;;;;;;8.07;5.63;;;;;;;14.22;100.00;92484.41;4760187;30;20039;-79
2023/06/15 04:50:13;;;;;;;11.40;6.13;;;;;;;14.26;100.00;92491.38;4745298;30;20023;-77
2023/06/15 04:52:40;;;;;;;7.80;5.65;;;;;;;14.31;100.00;92493.88;4757736;30;20079;-78
2023/06/15 04:55:06;;;;;;;12.30;6.20;;;;;;;14.55;100.00;92487.41;4751173;30;20055;-78
2023/06/15 04:57:32;;;;;;;8.57;5.95;;;;;;;14.49;100.00;92493.88;4757910;30;20573;-77
2023/06/15 04:59:58;;;;;;;12.38;8.73;;;;;;;14.52;100.00;92490.63;4757149;30;20039;-77
2023/06/15 05:02:24;;;;;;;13.27;8.32;;;;;;;14.57;100.00;92485.25;4757364;30;20054;-77
2023/06/15 05:04:50;;;;;;;11.57;8.65;;;;;;;14.64;100.00;92487.41;4744395;30;20028;-78
2023/06/15 05:07:15;;;;;;;11.88;8.77;;;;;;;14.73;100.00;92483.69;4737409;30;20043;-78
2023/06/15 05:09:46;;;;;;;10.50;8.05;;;;;;;14.86;100.00;92489.09;4757791;30;20077;-77
2023/06/15 05:12:17;;;;;;;12.45;8.90;;;;;;;14.96;100.00;92494.81;4745495;30;20044;-78
2023/06/15 05:14:43;;;;;;;15.70;10.50;;;;;;;15.08;100.00;92488.91;4735335;30;20055;-78
2023/06/15 05:17:09;;;;;;;15.75;10.10;;;;;;;15.19;100.00;92492.75;4760807;30;20534;-78
2023/06/15 05:19:41;;;;;;;17.27;10.63;;;;;;;15.31;100.00;92489.47;4743467;30;20095;-80
2023/06/15 05:22:07;;;;;;;13.63;9.30;;;;;;;15.40;100.00;92484.16;4779452;30;20130;-77
2023/06/15 05:24:36;;;;;;;16.60;9.32;;;;;;;15.52;100.00;92484.28;4742160;30;20035;-78
2023/06/15 05:27:02;;;;;;;15.30;9.82;;;;;;;15.62;100.00;92481.28;4773363;30;20043;-77
2023/06/15 05:29:28;;;;;;;16.90;11.02;;;;;;;15.70;100.00;92479.72;4756555;30;20540;-77
2023/06/15 05:31:55;;;;;;;16.63;11.52;;;;;;;15.75;100.00;92487.47;4750014;30;20081;-77
2023/06/15 05:34:22;;;;;;;20.33;11.10;;;;;;;15.81;100.00;92482.81;4751091;30;20071;-77
2023/06/15 05:36:47;;;;;;;16.63;11.10;;;;;;;15.89;100.00;92487.25;4742647;30;20510;-77
2023/06/15 05:39:13;;;;;;;21.25;11.18;;;;;;;16.00;100.00;92490.31;4743527;30;20169;-78
2023/06/15 05:41:39;;;;;;;16.38;11.32;;;;;;;16.10;100.00;92481.22;4749555;30;20035;-78
2023/06/15 05:44:05;;;;;;;21.70;9.43;;;;;;;16.28;100.00;92490.63;4741476;30;20059;-78
2023/06/15 05:46:31;;;;;;;14.68;9.63;;;;;;;16.85;100.00;92492.69;4757328;30;20074;-77
2023/06/15 05:48:57;;;;;;;16.98;9.18;;;;;;;17.32;100.00;92494.28;4757174;30;20058;-78
2023/06/15 05:51:23;;;;;;;51.05;11.02;;;;;;;17.68;100.00;92498.88;4756689;30;20055;-78
2023/06/15 05:53:49;;;;;;;13.75;8.60;;;;;;;18.14;100.00;92492.72;4742332;30;20047;-78
2023/06/15 05:56:15;;;;;;;12.57;7.40;;;;;;;18.21;100.00;92495.59;4728077;30;20063;-78
2023/06/15 05:58:40;;;;;;;18.98;7.60;;;;;;;18.44;100.00;92495.88;4743035;30;20081;-78
2023/06/15 06:01:07;;;;;;;11.95;8.23;;;;;;;18.62;100.00;92493.75;4754779;30;20040;-78
2023/06/15 06:03:34;;;;;;;15.18;8.32;;;;;;;18.63;100.00;92495.28;4758526;30;20453;-81
2023/06/15 06:06:00;;;;;;;11.07;7.78;;;;;;;18.77;100.00;92495.72;4752488;30;20044;-78
2023/06/15 06:08:26;;;;;;;48.15;10.88;;;;;;;19.05;100.00;92494.94;4759790;30;20104;-78
2023/06/15 06:10:51;;;;;;;13.77;8.50;;;;;;;19.18;100.00;92488.47;4762421;30;20094;-78
2023/06/15 06:13:27;;;;;;;13.20;7.40;;;;;;;19.49;100.00;92492.31;4741987;30;20040;-78
2023/06/15 06:15:53;;;;;;;11.38;7.30;;;;;;;19.58;100.00;92492.91;4748332;30;20044;-78
2023/06/15 06:18:19;;;;;;;18.77;8.32;;;;;;;19.90;100.00;92490.28;4760362;30;20050;-79
2023/06/15 06:20:44;;;;;;;14.05;6.78;;;;;;;20.06;100.00;92491.06;4763323;30;20134;-78
2023/06/15 06:23:10;;;;;;;26.52;9.05;;;;;;;19.91;100.00;92495.28;4762922;30;20179;-79
2023/06/15 06:25:36;;;;;;;19.52;8.40;;;;;;;19.88;100.00;92487.19;4763095;30;20054;-78
2023/06/15 06:28:04;;;;;;;14.95;7.88;;;;;;;19.67;100.00;92487.44;4763285;30;20040;-78
2023/06/15 06:30:29;;;;;;;12.40;7.43;;;;;;;19.62;100.00;92487.69;4749892;30;20078;-78
2023/06/15 06:32:55;;;;;;;12.25;7.45;;;;;;;19.76;100.00;92491.50;4763967;30;20048;-78
2023/06/15 06:35:20;;;;;;;11.73;7.53;;;;;;;19.55;100.00;92488.31;4756427;30;20029;-77
2023/06/15 06:37:47;;;;;;;12.35;7.05;;;;;;;19.45;100.00;92492.22;4760712;30;20044;-78
2023/06/15 06:40:13;;;;;;;9.65;6.90;;;;;;;18.97;100.00;92495.88;4760964;30;20047;-78
2023/06/15 06:42:38;;;;;;;15.32;7.18;;;;;;;18.65;100.00;92490.44;4760085;30;20044;-78
2023/06/15 06:45:05;;;;;;;14.80;7.85;;;;;;;18.50;100.00;92492.66;4745196;30;20075;-78
2023/06/15 06:47:31;;;;;;;12.43;8.20;;;;;;;18.33;100.00;92495.59;4744587;30;20110;-78
2023/06/15 06:49:59;;;;;;;12.82;8.68;;;;;;;18.51;100.00;92488.91;4761039;30;20052;-78
2023/06/15 06:52:25;;;;;;;12.13;7.53;;;;;;;18.70;100.00;92487.53;4745516;30;20079;-78
2023/06/15 06:54:51;;;;;;;15.93;8.38;;;;;;;18.77;100.00;92494.91;4744180;30;20067;-78
2023/06/15 06:57:16;;;;;;;18.88;9.48;;;;;;;18.92;100.00;92492.34;4743449;30;20044;-78
2023/06/15 06:59:42;;;;;;;23.58;9.50;;;;;;;18.74;100.00;92488.41;4759997;30;20052;-78
2023/06/15 07:02:08;;;;;;;15.15;8.40;;;;;;;18.61;100.00;92485.03;4744599;30;20062;-78
2023/06/15 07:04:33;;;;;;;15.82;8.40;;;;;;;18.96;100.00;92489.03;4744279;30;20044;-78
2023/06/15 07:06:59;;;;;;;10.88;7.97;;;;;;;18.95;100.00;92490.13;4743546;30;20036;-78
2023/06/15 07:09:25;;;;;;;14.98;9.00;;;;;;;19.15;100.00;92483.84;4758692;30;20040;-78
2023/06/15 07:11:50;;;;;;;15.35;9.07;;;;;;;19.47;100.00;92484.69;4759865;30;20039;-77
2023/06/15 07:14:16;;;;;;;18.55;10.18;;;;;;;19.83;100.00;92476.84;4760353;30;20044;-78
2023/06/15 07:16:41;;;;;;;14.00;8.75;;;;;;;19.92;100.00;92482.75;4743584;30;20064;-78
2023/06/15 07:19:07;;;;;;;15.75;9.38;;;;;;;19.98;100.00;92480.63;4744118;30;20508;-78
2023/06/15 07:21:33;;;;;;;13.63;8.52;;;;;;;20.17;100.00;92483.31;4759753;30;20052;-78
2023/06/15 07:24:00;;;;;;;16.55;8.80;;;;;;;20.14;100.00;92479.47;4759998;30;20052;-78
2023/06/15 07:26:26;;;;;;;12.80;8.93;;;;;;;20.06;100.00;92480.44;4758099;30;20152;-78
2023/06/15 07:28:52;;;;;;;21.17;10.38;;;;;;;19.99;100.00;92471.53;4744716;30;20048;-78
2023/06/15 07:31:17;;;;;;;13.68;8.77;;;;;;;19.99;100.00;92476.84;4743514;30;20040;-78
2023/06/15 07:33:43;;;;;;;13.15;8.90;;;;;;;19.60;100.00;92472.09;4729128;30;20059;-78
2023/06/15 07:36:09;;;;;;;15.50;9.02;;;;;;;19.56;100.00;92479.22;4742420;30;20036;-78
2023/06/15 07:38:36;;;;;;;17.23;8.82;;;;;;;19.76;100.00;92470.25;4744038;30;20044;-77
2023/06/15 07:41:01;;;;;;;14.68;9.52;;;;;;;19.57;100.00;92472.81;4743397;30;20040;-78
2023/06/15 07:43:27;;;;;;;15.38;8.75;;;;;;;19.52;100.00;92470.38;4743833;30;20040;-78
2023/06/15 07:45:52;;;;;;;13.70;9.10;;;;;;;19.45;100.00;92470.22;4714031;30;20411;-78
2023/06/15 07:48:18;;;;;;;14.70;8.77;;;;;;;19.33;100.00;92469.16;4742446;30;20148;-78
2023/06/15 07:50:46;;;;;;;17.83;9.60;;;;;;;19.37;100.00;92466.63;4728166;30;20100;-78
2023/06/15 07:53:12;;;;;;;20.95;9.18;;;;;;;19.33;100.00;92468.41;4758651;30;20040;-78
2023/06/15 07:55:38;;;;;;;13.38;8.57;;;;;;;19.35;100.00;92469.59;4757445;30;20036;-78
2023/06/15 07:58:03;;;;;;;12.82;8.07;;;;;;;19.23;100.00;92466.22;4758365;30;20052;-78
2023/06/15 08:00:29;;;;;;;16.33;8.57;;;;;;;19.24;100.00;92476.53;4741864;30;20046;-78
2023/06/15 08:03:00;;;;;;;12.45;9.25;;;;;;;19.27;100.00;92465.25;4757270;30;20394;-78
2023/06/15 08:05:26;;;;;;;12.27;8.52;;;;;;;19.53;100.00;92456.78;4741368;30;20139;-77
2023/06/15 08:07:52;;;;;;;18.98;8.40;;;;;;;19.41;100.00;92466.69;4756991;30;20040;-77
2023/06/15 08:10:18;;;;;;;12.85;8.70;;;;;;;19.43;100.00;92467.13;4740483;30;20078;-78
2023/06/15 08:12:43;;;;;;;13.43;8.15;;;;;;;19.43;100.00;92464.47;4741565;30;20032;-78
2023/06/15 08:15:09;;;;;;;12.82;7.95;;;;;;;19.48;100.00;92456.28;4755975;30;20427;-78
2023/06/15 08:17:35;;;;;;;14.25;8.18;;;;;;;19.55;100.00;92459.09;4741537;30;20059;-78
2023/06/15 08:20:05;;;;;;;15.77;8.55;;;;;;;19.50;100.00;92459.34;4741164;30;20076;-77
2023/06/15 09:21:03;;;;;;;12.70;7.43;;;;;;;20.57;100.00;92451.19;4749326;30;20056;-77
2023/06/15 09:30:05;;;;;;;12.88;6.65;;;;;;;20.53;100.00;92457.50;5045108;24;20063;-82
2023/06/15 09:32:31;;;;;;;10.68;8.18;;;;;;;20.65;100.00;92449.44;4793183;30;20481;-82
2023/06/15 09:35:00;;;;;;;11.32;6.18;;;;;;;20.68;100.00;92453.28;4746125;30;20045;-82
2023/06/15 09:37:33;;;;;;;18.48;7.90;;;;;;;20.36;100.00;92450.72;4791554;30;20506;-81
2023/06/15 09:40:03;;;;;;;12.90;7.57;;;;;;;20.59;100.00;92453.50;4754311;30;20059;-83
2023/06/15 09:42:29;;;;;;;12.57;7.72;;;;;;;20.57;100.00;92447.75;4772257;30;20051;-83
2023/06/15 09:45:00;;;;;;;10.63;6.07;;;;;;;20.69;100.00;92446.84;4736769;30;20674;-83
2023/06/15 09:47:30;;;;;;;9.80;6.40;;;;;;;20.87;100.00;92455.94;4774114;30;20036;-82
2023/06/15 09:49:56;;;;;;;10.25;6.90;;;;;;;21.04;100.00;92454.00;4792694;30;20047;-81
2023/06/15 09:52:22;;;;;;;10.30;6.18;;;;;;;21.11;100.00;92446.13;4777503;30;20061;-82
2023/06/15 09:54:48;;;;;;;10.65;6.20;;;;;;;21.04;100.00;92448.66;4792815;30;20054;-81
2023/06/15 09:57:18;;;;;;;10.65;6.85;;;;;;;21.04;100.00;92454.00;4769752;30;20179;-81
2023/06/15 09:59:45;;;;;;;10.60;6.65;;;;;;;21.11;100.00;92446.91;4763332;30;20172;-81
2023/06/15 10:02:12;;;;;;;13.65;7.68;;;;;;;20.93;100.00;92443.91;4777472;30;20578;-80
2023/06/15 10:04:40;;;;;;;11.38;7.05;;;;;;;21.11;100.00;92446.13;4776856;30;20043;-80
2023/06/15 10:07:11;;;;;;;11.38;6.00;;;;;;;21.08;100.00;92449.50;4790759;30;20394;-81
2023/06/15 10:09:44;;;;;;;14.02;7.15;;;;;;;21.12;100.00;92437.00;4792145;30;20039;-81
2023/06/15 10:12:16;;;;;;;9.73;5.15;;;;;;;21.30;100.00;92440.78;4791457;30;20050;-82
2023/06/15 10:14:48;;;;;;;;;;;;;;;21.26;100.00;92447.16;4792220;30;20043;-83
2023/06/15 10:17:20;;;;;;;8.77;6.05;;;;;;;21.38;100.00;92439.78;4776488;30;20372;-83
2023/06/15 10:19:50;;;;;;;10.77;6.03;;;;;;;21.62;100.00;92436.03;4776647;30;20066;-83
2023/06/15 10:22:21;;;;;;;11.10;6.88;;;;;;;21.08;100.00;92442.28;4792058;30;20489;-83
2023/06/15 10:24:48;;;;;;;8.70;5.90;;;;;;;21.21;100.00;92438.34;4776637;30;20043;-83
2023/06/15 10:27:15;;;;;;;8.32;5.65;;;;;;;21.36;100.00;92438.59;4775894;30;20035;-83
2023/06/15 10:30:14;;;;;;;11.02;6.65;;;;;;;21.32;100.00;92437.75;4773200;30;20079;-83
2023/06/15 10:32:51;;;;;;;11.35;6.97;;;;;;;21.56;100.00;92436.66;4773103;30;20071;-82
2023/06/15 10:35:40;;;;;;;12.77;6.47;;;;;;;21.67;100.00;92437.63;4771759;30;20040;-83
2023/06/15 10:38:35;;;;;;;9.23;6.30;;;;;;;21.74;100.00;92435.06;4769569;30;20046;-83
2023/06/15 10:41:01;;;;;;;12.18;6.63;;;;;;;21.68;100.00;92433.81;4770089;30;20031;-82
2023/06/15 10:43:27;;;;;;;11.07;6.97;;;;;;;21.47;100.00;92422.81;4772880;30;20130;-83
2023/06/15 10:45:53;;;;;;;9.85;5.63;;;;;;;21.69;100.00;92416.72;4771741;30;20148;-84
2023/06/15 10:48:38;;;;;;;13.18;6.47;;;;;;;21.89;100.00;92427.31;4772440;30;20035;-82
2023/06/15 10:51:09;;;;;;;10.25;5.53;;;;;;;21.75;100.00;92422.50;4773716;30;20155;-81
2023/06/15 10:53:42;;;;;;;9.38;7.10;;;;;;;21.32;100.00;92433.22;4772379;30;20043;-80
2023/06/15 10:56:20;;;;;;;10.43;6.55;;;;;;;21.06;100.00;92433.13;4771083;30;20138;-81
2023/06/15 10:59:05;;;;;;;11.05;6.75;;;;;;;21.26;100.00;92429.31;4772308;30;20510;-80
2023/06/15 11:01:32;;;;;;;9.95;6.57;;;;;;;21.44;100.00;92431.53;4761238;30;20128;-82
2023/06/15 11:04:18;;;;;;;10.93;7.00;;;;;;;21.80;100.00;92433.63;4769663;30;20620;-82
2023/06/15 11:06:56;;;;;;;10.60;6.82;;;;;;;21.83;100.00;92430.25;4765761;30;20535;-82
2023/06/15 11:09:24;;;;;;;12.13;6.57;;;;;;;21.83;100.00;92429.50;4770828;30;20055;-81
2023/06/15 11:11:50;;;;;;;10.23;6.05;;;;;;;21.77;100.00;92429.03;4769715;30;20376;-82
2023/06/15 11:14:19;;;;;;;12.55;7.50;;;;;;;21.52;100.00;92427.84;4770236;30;20050;-79
2023/06/15 11:16:45;;;;;;;11.27;7.70;;;;;;;21.51;100.00;92432.41;4769465;30;20039;-82
2023/06/15 11:19:11;;;;;;;10.35;6.70;;;;;;;21.89;100.00;92430.72;4766536;30;20561;-80
2023/06/15 11:21:50;;;;;;;11.18;6.90;;;;;;;21.55;100.00;92419.94;4767578;30;20093;-81
2023/06/15 11:24:19;;;;;;;15.90;7.72;;;;;;;21.13;100.00;92425.25;4739629;30;20051;-82
2023/06/15 11:26:48;;;;;;;12.40;7.43;;;;;;;21.04;100.00;92422.06;4768026;30;20043;-80
2023/06/15 11:29:22;;;;;;;11.48;7.60;;;;;;;21.11;100.00;92419.53;4776885;30;20106;-81
2023/06/15 11:31:49;;;;;;;13.23;7.72;;;;;;;21.05;100.00;92427.00;4789216;30;20043;-83
2023/06/15 11:34:15;;;;;;;10.80;7.05;;;;;;;20.99;100.00;92421.22;4789169;29;20509;-83
2023/06/15 11:36:41;;;;;;;12.85;7.60;;;;;;;20.80;100.00;92426.53;4757281;30;20047;-82
2023/06/15 11:39:23;;;;;;;12.40;8.13;;;;;;;20.73;100.00;92424.50;4788579;30;20091;-82
2023/06/15 11:41:53;;;;;;;13.82;8.10;;;;;;;20.69;100.00;92425.56;4790508;30;20042;-82
2023/06/15 11:44:21;;;;;;;15.45;8.63;;;;;;;20.58;100.00;92428.78;4772752;30;20087;-82
2023/06/15 11:47:01;;;;;;;11.48;7.90;;;;;;;20.93;100.00;92419.97;4758842;30;20055;-82
2023/06/15 11:49:36;;;;;;;12.93;8.82;;;;;;;21.04;100.00;92422.06;4771198;30;20405;-82
2023/06/15 11:52:03;;;;;;;13.95;8.25;;;;;;;21.49;100.00;92417.91;4788302;29;20102;-82
2023/06/15 11:54:28;;;;;;;16.65;8.75;;;;;;;21.15;100.00;92425.69;4789650;30;20132;-82
2023/06/15 11:56:58;;;;;;;13.05;8.32;;;;;;;21.38;100.00;92418.47;4746831;30;20071;-83
2023/06/15 11:59:26;;;;;;;13.50;8.00;;;;;;;21.16;100.00;92414.66;4790362;30;20050;-82
2023/06/15 12:01:56;;;;;;;12.50;8.38;;;;;;;21.20;100.00;92423.47;4759667;30;20077;-82
2023/06/15 12:04:22;;;;;;;43.28;6.35;;;;;;;21.39;100.00;92421.91;4784535;30;20027;-82
2023/06/15 12:06:48;;;;;;;12.70;7.68;;;;;;;21.56;100.00;92412.69;4785985;30;20047;-81
2023/06/15 12:09:16;;;;;;;15.40;6.43;;;;;;;21.71;100.00;92421.69;4768899;30;20122;-82
2023/06/15 12:11:43;;;;;;;12.10;7.90;;;;;;;21.64;100.00;92422.34;4782719;30;20043;-81
2023/06/15 12:14:11;;;;;;;11.68;7.75;;;;;;;21.74;100.00;92418.31;4789111;30;20035;-80
2023/06/15 12:16:38;;;;;;;17.05;7.55;;;;;;;21.76;100.00;92408.84;4790541;30;20043;-81
2023/06/15 12:19:08;;;;;;;15.80;8.15;;;;;;;21.49;100.00;92410.69;4790937;30;20044;-81
2023/06/15 12:21:37;;;;;;;11.63;7.28;;;;;;;21.20;100.00;92398.75;4773432;30;20181;-81
2023/06/15 12:24:15;;;;;;;12.60;7.88;;;;;;;21.16;100.00;92398.69;4772242;29;20487;-82
2023/06/15 12:26:41;;;;;;;12.45;7.55;;;;;;;21.06;100.00;92409.16;4756030;30;20042;-82
2023/06/15 12:29:15;;;;;;;13.65;7.15;;;;;;;20.95;100.00;92404.41;4762907;30;20121;-81